Tweed-New Haven Information

FAA: HVN - ICAO: KHVN

Tweed-New Haven (Airport) Location

State Connecticut
County New Haven
City New Haven
Tweed-New Haven (Airport) is 3 miles southeast of New Haven, CT.
Latitude 41-15-49.4980N
Longitude 072-53-12.4820W
Elevation 12ft

Tweed-New Haven METARs

METAR KHVN 060819Z AUTO 10008KT 3SM RA OVC014 11/08 A3010 RMK AO2 RAB12 P0003 T01110083
Altimeter 30.10"
Temperature 11.1°C (52.0°F)
Wind 100° at 8KT
Clouds overcast at 1,400ft
Visibility 3.0mi
Time observed: 2021-12-06T08:19:00Z

Tweed-New Haven (Airport) Details

Status Operational
Activation April 1940
Ownership Public
Usage Public
Chart NEW YORK
ATC on-site Yes
Beacon schedule sunset-sunrise
Beacon color clear green

Tweed-New Haven (Airport) Contacts

Owner CITY OF NEW HAVEN
Owner address 155 BURR STREET, NEW HAVEN, CT 06510
Owner phone 203-466-8833
Manager JAMES M SIMKINS, VICE PRES
Manager address 209 GREAT HILL RD, NAUGATUCK, CT 06770
Manager phone 203-723-7474

Tweed-New Haven Radio Frequencies

Tweed-New Haven (Airport) Radio Frequencies

UNICOM 122.95
Common traffic advisory frequency (CTAF) 124.8